Valparaiso, FL

7:06 AM CDT on August 31, 2014 (GMT -0500)
Eglin Air Force Base | Change Station
CLOSE
Current Station
Airport
Location: Valparaiso,
Elevation: 85 ft
Nearby Weather Stations

Elev 85 ft 30.48 °N, 86.53 °W | Updated 11 minutes ago

Mostly Cloudy
Mostly Cloudy
80 °F
Feels Like 80 °F
N
5
Wind Variable Wind from East

Today
High -- | Low -- °F
--% Chance of Precip.
Yesterday
High -- | Low -- °F
Precip. -- in
6:22 AM 7:10 PM
Waxing Crescent, 30% visible
Pressure 30.13 in
Visibility 10.0 miles
Clouds Scattered Clouds 1700 ft
Scattered Clouds 12000 ft
Mostly Cloudy 25000 ft
Dew Point 78 °F
Humidity 93%
Rainfall 0.00 in
Snow Depth Not available.
UV 0 out of 12
Pollen 7.90 out of 12
PM2.5 Good
Flu Activity Not available.
METAR KVPS 311155Z 08004KT 10SM SCT017 SCT120 BKN250 27/25 A3011 RMK AO2A CB 11SE MOV NW SLP202 MDT CU OHD AND SW T02660254 10254 20263 53015 $

More Conditions Fewer Conditions

Pressure 30.13 in
Visibility 10.0 miles
Clouds Scattered Clouds 1700 ft
Scattered Clouds 12000 ft
Mostly Cloudy 25000 ft
Dew Point 78 °F
Humidity 93%
Rainfall 0.00 in
Snow Depth Not available.
UV 0 out of 12
Pollen 7.90 out of 12
PM2.5 Good
Flu Activity Not available.
METAR KVPS 311155Z 08004KT 10SM SCT017 SCT120 BKN250 27/25 A3011 RMK AO2A CB 11SE MOV NW SLP202 MDT CU OHD AND SW T02660254 10254 20263 53015 $

More Conditions Fewer Conditions

10-Day Weather Forecast

Almanac

Astronomy

Aug. 31, 2014 Rise Set
Actual Time 6:22 AM CDT 7:10 PM CDT
Civil Twilight 5:57 AM CDT 7:34 PM CDT
Nautical Twilight 5:28 AM CDT 8:03 PM CDT
Astronomical Twilight 4:58 AM CDT 8:32 PM CDT
Moon 11:42 AM CDT 10:50 PM CDT
Length of Visible Light 13h 37m
Length of Day
12h 48m
Tomorrow will be 1m 46s shorter.
Waxing Crescent, 30% of the Moon is Illuminated
Today
Waxing Crescent
Sep 2
First Quarter
Sep 8
Full
Sep 15
Last Quarter
Sep 24
New

Today's Extremes

State Highs State Lows

Community

WunderPhotos

Upload Photos

1,748,853 photos uploaded!

Nearby

Air Quality

  Air Quality AQ Index Pollutant
Yesterday Good
PM2.5
Yesterday Good
OZONE
Current Good
PM2.5
Sunday Good
OZONE
Sunday Good
PM2.5
Monday Good
OZONE
Monday Good
PM2.5
Tuesday Good
OZONE
Tuesday Good
PM2.5

Snow Depth

Station Depth Elevation
No new snow has been reported.

Earthquake Activity

City Distance Mag. Time & Date
No recent earthquake activity has been reported nearby.
Minimum magnitude displayed is 2.5.

Coastal Water Temperatures

Place Temperature
No Stations Reporting

Nearby Weather Stations